Time;durP1;ratioP1;P1;durP2;ratioP2;P2;SDS_P1;SDS_P2;PMS_P1;PMS_P2;Temp;Humidity;BMP_temperature;BMP_pressure;BME280_temperature;BME280_humidity;BME280_pressure;Samples;Min_cycle;Max_cycle;Signal;HPM_P1;HPM_P2
2023/10/10 00:02:19;;;;;;;18.15;8.45;;;16.00;99.90;;;;;;4954303;28;20047;-67
2023/10/10 00:04:54;;;;;;;14.30;8.80;;;16.00;99.90;;;;;;4957372;28;20038;-68
2023/10/10 00:07:20;;;;;;;17.73;8.40;;;16.00;99.90;;;;;;4974514;28;20039;-68
2023/10/10 00:09:46;;;;;;;13.05;8.00;;;16.00;99.90;;;;;;4954658;28;20693;-68
2023/10/10 00:12:25;;;;;;;12.05;7.82;;;16.10;99.90;;;;;;4974096;28;20125;-68
2023/10/10 00:14:51;;;;;;;15.60;7.68;;;16.10;99.90;;;;;;4957722;28;20058;-68
2023/10/10 00:17:17;;;;;;;18.50;8.10;;;16.10;99.90;;;;;;4953857;28;20377;-68
2023/10/10 00:19:51;;;;;;;17.50;7.70;;;16.10;99.90;;;;;;4950623;28;20042;-68
2023/10/10 00:22:18;;;;;;;12.98;7.53;;;16.10;99.90;;;;;;4974137;28;20090;-68
2023/10/10 00:24:48;;;;;;;13.57;7.18;;;16.00;99.90;;;;;;4973684;28;20043;-68
2023/10/10 00:27:15;;;;;;;14.23;7.07;;;16.10;99.90;;;;;;4953086;28;20633;-69
2023/10/10 00:29:42;;;;;;;15.55;7.72;;;16.10;99.90;;;;;;4956724;28;20039;-68
2023/10/10 00:32:16;;;;;;;13.75;7.20;;;16.10;99.90;;;;;;4957267;28;20054;-68
2023/10/10 00:34:48;;;;;;;13.45;7.03;;;16.10;99.90;;;;;;4971216;28;20117;-68
2023/10/10 00:37:22;;;;;;;13.75;7.30;;;16.10;99.90;;;;;;4973452;28;20054;-68
2023/10/10 00:39:54;;;;;;;15.27;6.82;;;16.00;99.90;;;;;;4957265;28;20496;-68
2023/10/10 00:42:20;;;;;;;12.00;7.80;;;16.00;99.90;;;;;;4971214;28;20047;-68
2023/10/10 00:44:47;;;;;;;14.00;7.03;;;16.00;99.90;;;;;;4973445;28;20143;-68
2023/10/10 00:47:26;;;;;;;14.73;6.97;;;16.00;99.90;;;;;;4973468;28;20074;-68
2023/10/10 00:49:52;;;;;;;15.40;6.50;;;16.00;99.90;;;;;;4953768;28;20043;-68
2023/10/10 00:52:19;;;;;;;14.45;7.18;;;16.00;99.90;;;;;;4955556;28;20509;-68
2023/10/10 00:54:46;;;;;;;15.88;6.85;;;16.00;99.90;;;;;;4956709;28;20069;-68
2023/10/10 00:57:19;;;;;;;12.48;6.78;;;16.00;99.90;;;;;;4973775;28;20081;-68
2023/10/10 00:59:46;;;;;;;15.13;6.85;;;16.00;99.90;;;;;;4967990;28;20055;-68
2023/10/10 01:02:20;;;;;;;13.57;6.70;;;15.90;99.90;;;;;;4973309;28;20070;-68
2023/10/10 01:04:57;;;;;;;12.10;6.70;;;15.90;99.90;;;;;;4974297;28;20089;-68
2023/10/10 01:07:25;;;;;;;12.15;6.60;;;15.90;99.90;;;;;;4972570;28;20039;-68
2023/10/10 01:12:22;;;;;;;9.82;6.30;;;16.00;99.90;;;;;;4956082;28;20082;-68
2023/10/10 01:14:54;;;;;;;13.60;6.57;;;16.00;99.90;;;;;;4956346;28;20074;-68
2023/10/10 01:17:20;;;;;;;17.63;6.32;;;15.90;99.90;;;;;;4967722;28;20042;-69
2023/10/10 01:19:46;;;;;;;12.20;7.00;;;15.90;99.90;;;;;;4973279;28;20093;-68
2023/10/10 01:22:22;;;;;;;13.23;6.85;;;15.90;99.90;;;;;;4956132;28;20047;-69
2023/10/10 01:24:52;;;;;;;15.50;7.03;;;16.00;99.90;;;;;;4952720;28;20038;-68
2023/10/10 01:27:21;;;;;;;14.85;6.95;;;15.90;99.90;;;;;;4953616;28;20039;-68
2023/10/10 01:30:16;;;;;;;18.38;7.45;;;16.00;99.90;;;;;;4955936;28;20092;-68
2023/10/10 01:32:38;;;;;;;11.40;6.60;;;15.90;99.90;;;;;;4970411;28;20051;-68
2023/10/10 01:35:15;;;;;;;13.52;6.97;;;15.90;99.90;;;;;;4972334;28;20054;-69
2023/10/10 01:37:41;;;;;;;12.00;6.38;;;16.00;99.90;;;;;;4955955;28;20050;-68
2023/10/10 01:40:16;;;;;;;14.93;7.30;;;15.90;99.90;;;;;;4956349;28;20047;-68
2023/10/10 01:42:51;;;;;;;13.50;6.93;;;15.90;99.90;;;;;;4969862;28;20100;-68
2023/10/10 01:45:19;;;;;;;12.93;7.63;;;16.00;99.90;;;;;;4972329;28;20386;-68
2023/10/10 01:47:56;;;;;;;10.70;7.35;;;16.00;99.90;;;;;;4955256;28;20085;-69
2023/10/10 01:50:24;;;;;;;16.50;7.97;;;15.90;99.90;;;;;;4970012;28;20077;-68
2023/10/10 01:52:50;;;;;;;13.68;8.10;;;15.90;99.90;;;;;;4972678;28;20034;-69
2023/10/10 01:55:18;;;;;;;19.73;8.15;;;16.00;99.90;;;;;;4973265;28;20041;-69
2023/10/10 01:57:44;;;;;;;12.25;8.02;;;15.90;99.90;;;;;;4955462;28;20046;-68
2023/10/10 02:00:26;;;;;;;13.80;8.20;;;15.90;99.90;;;;;;4951454;28;20406;-69
2023/10/10 02:02:56;;;;;;;15.27;8.20;;;15.90;99.90;;;;;;4954088;28;20540;-69
2023/10/10 02:08:03;;;;;;;12.85;8.15;;;15.90;99.90;;;;;;4953928;28;20085;-68
2023/10/10 02:10:32;;;;;;;16.63;8.60;;;15.90;99.90;;;;;;4971053;28;20035;-69
2023/10/10 02:13:04;;;;;;;12.50;8.52;;;15.90;99.90;;;;;;4972094;28;20054;-69
2023/10/10 02:15:34;;;;;;;18.27;8.45;;;15.90;99.90;;;;;;4969037;28;20038;-68
2023/10/10 02:18:12;;;;;;;17.08;8.63;;;15.90;99.90;;;;;;4971472;28;20039;-69
2023/10/10 02:23:31;;;;;;;15.48;8.48;;;15.80;99.90;;;;;;4943299;28;20142;-69
2023/10/10 02:26:02;;;;;;;15.82;8.75;;;15.80;99.90;;;;;;4970635;28;20122;-69
2023/10/10 02:28:43;;;;;;;18.83;8.50;;;15.80;99.90;;;;;;4955178;28;20093;-68
2023/10/10 02:31:12;;;;;;;17.52;9.10;;;15.70;99.90;;;;;;4968305;28;20047;-68
2023/10/10 02:33:37;;;;;;;17.05;8.57;;;15.70;99.90;;;;;;4970650;28;20046;-68
2023/10/10 02:36:07;;;;;;;16.48;8.50;;;15.70;99.90;;;;;;4968903;28;20503;-68
2023/10/10 02:38:35;;;;;;;13.80;8.32;;;15.60;99.90;;;;;;4957628;28;20069;-68
2023/10/10 02:46:35;;;;;;;15.60;8.77;;;15.50;99.90;;;;;;4953961;28;20509;-68
2023/10/10 02:49:22;;;;;;;14.43;9.20;;;15.40;99.90;;;;;;4972301;28;20097;-68
2023/10/10 02:51:49;;;;;;;14.93;8.57;;;15.40;99.90;;;;;;4969405;28;20081;-69
2023/10/10 02:54:28;;;;;;;16.58;8.68;;;15.30;99.90;;;;;;4975063;28;20045;-68
2023/10/10 02:59:51;;;;;;;12.23;8.15;;;15.20;99.90;;;;;;4951523;28;20417;-69
2023/10/10 03:02:40;;;;;;;15.30;8.38;;;15.20;99.90;;;;;;4975241;28;20125;-68
2023/10/10 03:05:06;;;;;;;13.90;8.15;;;15.10;99.90;;;;;;4973081;28;20077;-68
2023/10/10 03:07:34;;;;;;;12.93;8.20;;;15.10;99.90;;;;;;4956703;28;20039;-69
2023/10/10 03:12:49;;;;;;;16.27;7.70;;;15.20;99.90;;;;;;4972610;28;20130;-68
2023/10/10 03:15:27;;;;;;;13.35;7.70;;;15.20;99.90;;;;;;4956796;28;20047;-68
2023/10/10 03:23:23;;;;;;;15.05;7.95;;;15.20;99.90;;;;;;4974057;28;20277;-68
2023/10/10 03:25:53;;;;;;;12.85;8.38;;;15.10;99.90;;;;;;4974311;28;20039;-68
2023/10/10 05:25:33;;;;;;;30.40;16.20;;;15.10;99.90;;;;;;4961196;28;20050;-68
2023/10/10 05:27:59;;;;;;;33.35;16.48;;;15.00;99.90;;;;;;4963870;28;20402;-68
2023/10/10 05:30:27;;;;;;;26.20;14.75;;;15.00;99.90;;;;;;4948181;28;20034;-67
2023/10/10 05:33:02;;;;;;;33.55;15.35;;;14.90;99.90;;;;;;4972116;28;20118;-67
2023/10/10 05:35:32;;;;;;;30.73;15.52;;;14.90;99.90;;;;;;4969266;28;20035;-67
2023/10/10 05:38:02;;;;;;;29.17;15.43;;;14.80;99.90;;;;;;4971030;28;20031;-68
2023/10/10 05:40:28;;;;;;;33.20;15.98;;;14.80;99.90;;;;;;4972174;28;20128;-68
2023/10/10 05:42:57;;;;;;;33.70;15.85;;;14.80;99.90;;;;;;4969483;28;20039;-68
2023/10/10 05:45:22;;;;;;;31.65;16.08;;;14.80;99.90;;;;;;4971079;28;20865;-67
2023/10/10 05:47:48;;;;;;;26.98;14.95;;;14.70;99.90;;;;;;4972400;28;20173;-68
2023/10/10 05:50:14;;;;;;;29.17;15.50;;;14.70;99.90;;;;;;4954840;28;20079;-68
2023/10/10 05:52:40;;;;;;;33.92;16.05;;;14.70;99.90;;;;;;4969326;28;20074;-68
2023/10/10 05:55:07;;;;;;;33.22;15.55;;;14.70;99.90;;;;;;4971642;28;20121;-68
2023/10/10 05:57:36;;;;;;;32.03;16.20;;;14.60;99.90;;;;;;4954379;28;20034;-67
2023/10/10 06:00:05;;;;;;;31.08;16.23;;;14.70;99.90;;;;;;4952564;28;20389;-68
2023/10/10 06:02:32;;;;;;;30.90;16.00;;;14.70;99.90;;;;;;4953777;28;20046;-68
2023/10/10 06:04:58;;;;;;;30.40;16.00;;;14.70;99.90;;;;;;4978903;28;20084;-69
2023/10/10 06:07:23;;;;;;;31.02;15.65;;;14.80;99.90;;;;;;4973817;28;20125;-69
2023/10/10 06:09:51;;;;;;;32.55;16.38;;;14.80;99.90;;;;;;4978001;28;20073;-68
2023/10/10 06:12:19;;;;;;;34.88;16.85;;;14.80;99.90;;;;;;4953934;28;20058;-68
2023/10/10 06:14:46;;;;;;;31.70;16.63;;;14.90;99.90;;;;;;4935083;29;20050;-68
2023/10/10 06:17:12;;;;;;;40.05;17.08;;;14.90;99.90;;;;;;4961865;28;20049;-67
2023/10/10 06:19:38;;;;;;;35.53;17.00;;;15.00;99.90;;;;;;4954097;28;20039;-68
2023/10/10 06:22:08;;;;;;;34.38;17.83;;;15.10;99.90;;;;;;4970930;28;20043;-67
2023/10/10 06:24:34;;;;;;;39.70;18.10;;;15.10;99.90;;;;;;4971850;28;20077;-68
2023/10/10 06:27:00;;;;;;;34.97;17.40;;;15.10;99.90;;;;;;4951265;28;20046;-68
2023/10/10 06:29:29;;;;;;;36.83;18.58;;;15.20;99.90;;;;;;4968759;28;20027;-68
2023/10/10 06:31:56;;;;;;;36.33;18.35;;;15.20;99.90;;;;;;4985913;28;20042;-70
2023/10/10 06:34:23;;;;;;;36.67;19.17;;;15.30;99.90;;;;;;4956361;28;20054;-69
2023/10/10 06:36:50;;;;;;;38.13;20.55;;;15.40;99.90;;;;;;4955336;28;20038;-69
2023/10/10 06:41:46;;;;;;;37.28;19.95;;;15.60;99.90;;;;;;4952267;28;20142;-69
2023/10/10 06:44:17;;;;;;;48.90;21.33;;;15.60;99.90;;;;;;4953148;28;20050;-69
2023/10/10 06:46:47;;;;;;;40.03;21.03;;;15.80;99.90;;;;;;4950591;28;20043;-69
2023/10/10 06:49:12;;;;;;;47.67;20.73;;;15.90;99.90;;;;;;4955936;28;20118;-69
2023/10/10 06:51:41;;;;;;;35.95;19.15;;;16.00;99.90;;;;;;4969007;28;20470;-68
2023/10/10 06:54:28;;;;;;;37.92;20.38;;;16.00;99.90;;;;;;4969236;28;20049;-69
2023/10/10 06:59:27;;;;;;;36.38;18.50;;;16.10;99.90;;;;;;4952467;28;20391;-69
2023/10/10 07:02:13;;;;;;;33.65;18.60;;;16.10;99.90;;;;;;4971263;28;20039;-70
2023/10/10 07:04:38;;;;;;;38.58;19.88;;;16.20;99.90;;;;;;4971654;28;20034;-69
2023/10/10 07:07:06;;;;;;;31.15;18.08;;;16.30;99.90;;;;;;4967050;28;20048;-69
2023/10/10 07:09:36;;;;;;;38.35;19.30;;;16.30;99.90;;;;;;4956942;28;20042;-69
2023/10/10 07:12:09;;;;;;;38.70;21.13;;;16.40;99.90;;;;;;4990711;28;20501;-70
2023/10/10 07:14:40;;;;;;;39.70;22.08;;;16.50;99.90;;;;;;4969844;28;20061;-70
2023/10/10 07:17:13;;;;;;;43.92;23.27;;;16.50;99.90;;;;;;4969279;28;20101;-70
2023/10/10 07:22:23;;;;;;;45.90;24.90;;;16.50;99.90;;;;;;4966100;28;20422;-70
2023/10/10 07:24:55;;;;;;;47.50;25.83;;;16.50;99.90;;;;;;4972543;28;20031;-70
2023/10/10 07:27:30;;;;;;;52.03;25.10;;;16.40;99.90;;;;;;4972019;28;20039;-69
2023/10/10 07:32:28;;;;;;;56.90;28.45;;;16.40;99.90;;;;;;4965943;28;20152;-70
2023/10/10 07:34:54;;;;;;;60.30;28.60;;;16.40;99.90;;;;;;4974374;28;20042;-70
2023/10/10 07:37:27;;;;;;;59.55;28.60;;;16.40;99.90;;;;;;4974796;28;20049;-70
2023/10/10 07:42:38;;;;;;;59.60;28.00;;;16.50;99.90;;;;;;4949872;28;20075;-70
2023/10/10 07:45:13;;;;;;;64.10;29.42;;;16.40;99.90;;;;;;4974172;28;20505;-69
2023/10/10 07:50:49;;;;;;;72.97;33.15;;;16.50;99.90;;;;;;4940447;28;20046;-70
2023/10/10 07:53:17;;;;;;;81.93;34.15;;;16.40;99.90;;;;;;4973742;28;20081;-70
2023/10/10 07:55:53;;;;;;;73.72;33.55;;;16.40;99.90;;;;;;4957021;28;20042;-70
2023/10/10 07:58:23;;;;;;;77.72;35.00;;;16.40;99.90;;;;;;4970078;28;20052;-68
2023/10/10 08:00:53;;;;;;;75.10;32.22;;;16.30;99.90;;;;;;4971043;28;20046;-69
2023/10/10 08:03:19;;;;;;;86.72;36.53;;;16.30;99.90;;;;;;4973085;28;20071;-68
2023/10/10 08:05:50;;;;;;;91.03;37.58;;;16.20;99.90;;;;;;4971080;28;20070;-68
2023/10/10 08:08:19;;;;;;;92.80;36.83;;;16.20;99.90;;;;;;4970953;28;20134;-69
2023/10/10 08:10:51;;;;;;;95.05;36.97;;;16.30;99.90;;;;;;4956371;28;20035;-70
2023/10/10 08:13:17;;;;;;;90.55;34.63;;;16.30;99.90;;;;;;4953728;28;20089;-71
2023/10/10 08:15:56;;;;;;;90.38;36.55;;;16.30;99.90;;;;;;4973368;28;20141;-68
2023/10/10 08:21:10;;;;;;;91.38;35.25;;;16.40;99.90;;;;;;4971975;28;20145;-67
2023/10/10 08:23:36;;;;;;;93.70;38.38;;;16.50;99.90;;;;;;4972662;28;20042;-67
2023/10/10 08:26:02;;;;;;;94.28;39.35;;;16.50;99.90;;;;;;4973234;28;20034;-66
2023/10/10 08:28:28;;;;;;;97.03;37.15;;;16.50;99.90;;;;;;4970839;28;20039;-66
2023/10/10 08:30:53;;;;;;;99.47;39.88;;;16.60;99.90;;;;;;4967426;28;20038;-66
2023/10/10 08:33:19;;;;;;;91.65;38.70;;;16.60;99.90;;;;;;4968507;28;20034;-64
2023/10/10 08:35:46;;;;;;;95.80;39.38;;;16.70;99.90;;;;;;4946038;28;20043;-65
2023/10/10 08:38:14;;;;;;;85.47;37.17;;;16.70;99.90;;;;;;4951125;28;20046;-65
2023/10/10 08:40:43;;;;;;;92.53;38.65;;;16.70;99.90;;;;;;4959999;28;20117;-65
2023/10/10 08:43:09;;;;;;;91.57;39.85;;;16.70;99.90;;;;;;4963505;28;20050;-65
2023/10/10 08:45:39;;;;;;;88.82;40.08;;;16.70;99.90;;;;;;4945427;28;20039;-66
2023/10/10 08:48:12;;;;;;;86.72;38.55;;;16.70;99.90;;;;;;4965447;28;20552;-65
2023/10/10 08:50:40;;;;;;;89.95;39.00;;;16.80;99.90;;;;;;4952686;28;20046;-66
2023/10/10 08:53:12;;;;;;;89.53;40.42;;;16.80;99.90;;;;;;4962157;28;20097;-66
2023/10/10 08:55:41;;;;;;;88.90;40.22;;;16.90;99.90;;;;;;4964073;28;20109;-66
2023/10/10 08:58:08;;;;;;;89.25;41.30;;;16.90;99.90;;;;;;4972672;28;20587;-65
2023/10/10 09:00:34;;;;;;;92.90;42.15;;;17.00;99.90;;;;;;4936832;29;20118;-64
2023/10/10 09:03:00;;;;;;;85.55;39.97;;;17.20;99.90;;;;;;4957809;28;20046;-66
2023/10/10 09:05:29;;;;;;;87.20;41.83;;;17.40;99.90;;;;;;4972265;28;20034;-65
2023/10/10 09:08:05;;;;;;;86.40;41.75;;;17.50;99.90;;;;;;4950776;28;20046;-65
2023/10/10 09:10:39;;;;;;;80.60;40.15;;;17.80;99.90;;;;;;4956290;28;20171;-65
2023/10/10 09:13:07;;;;;;;76.25;38.88;;;17.90;99.90;;;;;;4968212;23;20081;-65
2023/10/10 09:15:33;;;;;;;75.40;39.03;;;18.00;99.90;;;;;;4940318;28;20055;-65
2023/10/10 09:18:14;;;;;;;73.07;39.05;;;17.80;99.90;;;;;;4963655;28;20075;-65
2023/10/10 09:20:40;;;;;;;75.45;39.35;;;17.80;99.90;;;;;;4931681;28;20101;-65
2023/10/10 09:23:26;;;;;;;71.47;38.95;;;17.90;99.90;;;;;;4945816;28;20797;-65
2023/10/10 09:26:19;;;;;;;70.97;38.53;;;18.00;99.90;;;;;;4929380;28;20055;-65
2023/10/10 09:28:49;;;;;;;69.18;37.70;;;18.00;99.90;;;;;;4938709;28;20046;-64
2023/10/10 09:31:26;;;;;;;65.72;37.63;;;18.10;99.90;;;;;;4946045;28;20049;-65
2023/10/10 09:33:56;;;;;;;63.58;37.53;;;18.10;99.90;;;;;;4950339;28;20086;-65
2023/10/10 09:36:27;;;;;;;67.10;37.20;;;18.10;99.90;;;;;;4964803;28;20035;-65
2023/10/10 09:39:09;;;;;;;63.78;36.53;;;18.10;99.90;;;;;;4943611;28;20323;-65
2023/10/10 09:49:44;;;;;;;66.38;36.08;;;18.40;99.90;;;;;;4972543;28;20089;-65
2023/10/10 09:57:42;;;;;;;61.95;34.55;;;18.60;99.90;;;;;;4971473;28;20074;-66
2023/10/10 10:00:15;;;;;;;;;;;18.70;99.90;;;;;;4975741;28;20057;-64
2023/10/10 10:02:56;;;;;;;58.97;33.20;;;18.70;99.90;;;;;;4973960;28;20324;-65
2023/10/10 10:05:28;;;;;;;63.85;34.55;;;18.70;99.90;;;;;;4979475;28;20413;-66
2023/10/10 10:08:12;;;;;;;59.90;34.42;;;18.70;99.90;;;;;;4980265;28;20066;-66
2023/10/10 10:10:54;;;;;;;57.33;33.92;;;18.80;99.90;;;;;;4969379;28;20054;-66
2023/10/10 10:13:39;;;;;;;56.58;34.05;;;18.90;99.90;;;;;;4953793;28;20047;-66
2023/10/10 10:16:19;;;;;;;57.35;33.65;;;19.00;99.90;;;;;;4953989;28;20043;-66
2023/10/10 10:18:47;;;;;;;58.13;34.15;;;19.10;99.90;;;;;;4954062;28;20053;-67
2023/10/10 10:21:32;;;;;;;60.78;34.97;;;19.00;99.90;;;;;;4953832;28;20061;-66
2023/10/10 10:24:15;;;;;;;59.20;33.67;;;19.10;99.90;;;;;;4953803;28;20077;-65
2023/10/10 10:26:43;;;;;;;57.17;33.47;;;19.30;99.90;;;;;;4952831;28;20544;-66
2023/10/10 10:29:22;;;;;;;55.38;32.58;;;19.30;99.90;;;;;;4967390;28;20047;-66
2023/10/10 10:31:51;;;;;;;52.95;31.35;;;19.40;99.90;;;;;;4971924;28;20117;-65
2023/10/10 10:34:45;;;;;;;50.53;28.55;;;19.50;99.90;;;;;;4965912;28;20042;-66
2023/10/10 10:37:20;;;;;;;51.70;31.05;;;19.50;99.90;;;;;;4954224;28;20733;-66
2023/10/10 10:42:34;;;;;;;53.00;31.98;;;19.50;99.90;;;;;;4970376;28;20038;-65
2023/10/10 10:45:26;;;;;;;51.15;29.65;;;19.60;99.90;;;;;;4954958;28;20105;-65
2023/10/10 10:47:59;;;;;;;52.10;32.35;;;19.60;99.90;;;;;;4977436;28;20034;-65
2023/10/10 10:50:28;;;;;;;54.47;31.85;;;19.70;99.90;;;;;;4972656;28;20046;-65
2023/10/10 10:53:06;;;;;;;56.47;32.03;;;19.70;99.90;;;;;;4954737;28;20113;-65
2023/10/10 10:55:39;;;;;;;50.88;30.92;;;19.70;99.90;;;;;;4968855;28;20047;-65
2023/10/10 10:58:06;;;;;;;48.65;29.67;;;19.90;99.90;;;;;;4971911;28;20105;-65
2023/10/10 11:01:07;;;;;;;39.63;24.67;;;19.90;99.90;;;;;;4957224;28;20050;-66
2023/10/10 11:03:37;;;;;;;44.35;25.42;;;20.00;99.90;;;;;;4968188;28;20042;-66
2023/10/10 11:06:14;;;;;;;48.28;28.33;;;20.10;99.90;;;;;;4971571;28;20046;-66
2023/10/10 11:14:01;;;;;;;48.60;28.90;;;20.50;99.90;;;;;;4974695;28;20042;-65
2023/10/10 11:16:45;;;;;;;47.28;29.60;;;20.70;99.90;;;;;;4969240;28;20038;-65
2023/10/10 11:21:55;;;;;;;38.90;24.08;;;21.00;99.90;;;;;;4981285;28;20663;-65
2023/10/10 11:24:26;;;;;;;41.42;23.90;;;21.10;99.90;;;;;;4976562;28;20082;-65
2023/10/10 11:29:42;;;;;;;38.78;22.55;;;21.00;99.90;;;;;;4972770;28;20409;-65
2023/10/10 11:32:11;;;;;;;39.17;23.80;;;21.20;99.90;;;;;;4971906;28;20050;-65
2023/10/10 11:34:44;;;;;;;39.10;24.52;;;21.30;99.90;;;;;;4975785;28;20109;-65
2023/10/10 11:37:20;;;;;;;36.03;23.13;;;21.30;99.90;;;;;;4974683;28;20050;-66
2023/10/10 11:40:19;;;;;;;40.92;23.25;;;21.30;99.90;;;;;;4975205;28;20035;-65
2023/10/10 11:42:49;;;;;;;40.60;23.73;;;21.30;99.90;;;;;;4974340;28;20078;-66
2023/10/10 11:45:19;;;;;;;42.85;24.00;;;21.30;99.90;;;;;;4964521;28;20054;-66
2023/10/10 11:48:00;;;;;;;34.83;22.75;;;21.50;99.90;;;;;;4985370;28;20049;-66
2023/10/10 11:50:46;;;;;;;37.20;22.63;;;21.50;99.90;;;;;;4978316;28;20034;-65
2023/10/10 11:53:14;;;;;;;37.53;23.50;;;21.50;99.90;;;;;;4976309;28;20051;-65
2023/10/10 11:55:43;;;;;;;38.03;23.35;;;21.50;99.90;;;;;;4973948;28;20042;-65
2023/10/10 11:58:09;;;;;;;35.50;23.27;;;21.70;99.90;;;;;;4969344;28;20051;-66
2023/10/10 12:00:59;;;;;;;36.67;22.98;;;21.70;99.90;;;;;;4964777;28;20035;-66
2023/10/10 12:03:43;;;;;;;35.10;21.33;;;21.80;99.90;;;;;;4971253;28;20090;-65
2023/10/10 12:06:19;;;;;;;34.25;20.85;;;21.90;99.90;;;;;;4958660;28;20673;-65
2023/10/10 12:08:50;;;;;;;33.55;20.38;;;21.90;99.90;;;;;;4969694;28;20509;-65
2023/10/10 12:11:25;;;;;;;32.85;21.02;;;21.90;99.90;;;;;;4970162;28;20414;-65
2023/10/10 12:13:54;;;;;;;32.88;21.42;;;21.90;99.90;;;;;;4972353;28;20034;-65
2023/10/10 12:16:23;;;;;;;34.80;21.63;;;21.80;99.90;;;;;;4969203;28;20050;-65
2023/10/10 12:18:52;;;;;;;34.05;21.05;;;21.80;99.90;;;;;;4976116;28;20030;-65
2023/10/10 12:21:22;;;;;;;32.65;20.20;;;21.80;99.90;;;;;;4968940;28;20121;-65
2023/10/10 12:23:55;;;;;;;33.70;19.83;;;21.80;99.90;;;;;;4973149;28;20035;-65
2023/10/10 12:26:22;;;;;;;32.70;19.83;;;21.90;99.90;;;;;;4958611;28;20074;-66
2023/10/10 12:28:48;;;;;;;29.98;18.63;;;21.90;99.90;;;;;;4971980;28;20440;-65
2023/10/10 12:31:17;;;;;;;31.65;19.65;;;21.90;99.90;;;;;;4970263;28;20185;-66
2023/10/10 12:33:48;;;;;;;32.13;19.27;;;21.90;99.90;;;;;;4973835;28;20062;-65
2023/10/10 12:36:14;;;;;;;33.58;19.65;;;21.90;99.90;;;;;;4957050;28;20042;-66
2023/10/10 12:38:40;;;;;;;32.58;19.35;;;21.90;99.90;;;;;;4977979;28;20505;-66
2023/10/10 12:41:06;;;;;;;28.45;19.73;;;21.90;99.90;;;;;;4971534;28;20047;-66
2023/10/10 12:43:37;;;;;;;31.70;19.85;;;21.90;99.90;;;;;;4947045;28;20043;-66
2023/10/10 12:46:04;;;;;;;33.45;19.27;;;21.90;99.90;;;;;;4970163;28;20485;-66
2023/10/10 12:48:31;;;;;;;36.10;19.98;;;22.00;99.90;;;;;;4968508;28;20030;-66
2023/10/10 12:51:00;;;;;;;29.40;19.45;;;21.90;99.90;;;;;;4977990;28;20378;-66
2023/10/10 12:53:30;;;;;;;30.50;19.40;;;21.80;99.90;;;;;;4971617;28;20324;-66
2023/10/10 12:56:01;;;;;;;29.88;19.27;;;21.60;99.90;;;;;;4971044;28;20042;-64
2023/10/10 12:58:27;;;;;;;28.75;19.08;;;21.50;99.90;;;;;;4977690;28;20462;-66
2023/10/10 13:00:54;;;;;;;31.48;19.45;;;21.50;99.90;;;;;;4950621;28;20047;-66
2023/10/10 13:03:28;;;;;;;29.08;18.60;;;21.40;99.90;;;;;;4975245;28;20067;-65
2023/10/10 13:06:00;;;;;;;34.03;19.50;;;21.40;99.90;;;;;;4970766;28;20043;-65
2023/10/10 13:08:47;;;;;;;29.63;19.92;;;21.40;99.90;;;;;;4967307;28;20070;-66
2023/10/10 13:11:17;;;;;;;28.83;19.55;;;21.30;99.90;;;;;;4954862;28;20039;-66
2023/10/10 13:13:51;;;;;;;29.77;19.50;;;21.20;99.90;;;;;;4962833;28;20536;-66
2023/10/10 13:16:24;;;;;;;28.27;18.80;;;21.20;99.90;;;;;;4954904;28;20541;-66
2023/10/10 13:18:57;;;;;;;29.52;20.15;;;21.10;99.90;;;;;;4973805;28;20394;-65
2023/10/10 13:21:23;;;;;;;27.13;18.55;;;21.10;99.90;;;;;;4973230;28;20034;-65
2023/10/10 13:23:50;;;;;;;27.90;18.75;;;21.10;99.90;;;;;;4976630;28;20129;-65
2023/10/10 13:26:16;;;;;;;29.45;19.10;;;21.10;99.90;;;;;;4961966;28;20049;-65
2023/10/10 13:28:46;;;;;;;29.25;18.55;;;21.10;99.90;;;;;;4973594;28;20106;-66
2023/10/10 13:31:16;;;;;;;27.08;18.63;;;21.10;99.90;;;;;;4969839;28;20094;-65
2023/10/10 13:33:43;;;;;;;31.73;18.42;;;21.00;99.90;;;;;;4973002;28;20122;-66
2023/10/10 13:36:11;;;;;;;27.63;18.00;;;21.00;99.90;;;;;;4957184;28;20061;-65
2023/10/10 13:38:40;;;;;;;28.63;18.27;;;21.10;99.90;;;;;;4960809;28;20516;-65
2023/10/10 13:41:08;;;;;;;25.80;17.08;;;21.00;99.90;;;;;;4955888;28;20070;-65
2023/10/10 13:43:34;;;;;;;32.35;18.05;;;21.10;99.90;;;;;;4953261;28;20445;-65
2023/10/10 13:46:02;;;;;;;27.90;18.10;;;21.10;99.90;;;;;;4965907;28;20031;-65
2023/10/10 13:48:30;;;;;;;24.42;17.35;;;21.20;99.90;;;;;;4973471;28;20054;-65
2023/10/10 13:50:58;;;;;;;28.60;17.75;;;21.30;99.90;;;;;;4967536;28;20085;-65
2023/10/10 13:53:24;;;;;;;27.83;17.42;;;21.30;99.90;;;;;;4959101;28;20046;-65
2023/10/10 13:55:50;;;;;;;27.00;16.90;;;21.30;99.90;;;;;;4957792;28;20051;-66
2023/10/10 13:58:16;;;;;;;25.55;16.98;;;21.30;99.90;;;;;;4972834;28;20038;-66
2023/10/10 14:00:52;;;;;;;22.73;16.80;;;21.30;99.90;;;;;;4972817;28;20093;-66
2023/10/10 14:03:31;;;;;;;25.35;16.88;;;21.30;99.90;;;;;;4970310;28;20039;-66
2023/10/10 14:06:00;;;;;;;26.92;16.67;;;21.30;99.90;;;;;;4954781;28;20043;-65
2023/10/10 14:08:26;;;;;;;24.38;16.65;;;21.20;99.90;;;;;;4972429;28;20437;-66
2023/10/10 14:10:53;;;;;;;24.60;17.00;;;21.20;99.90;;;;;;4953319;28;20059;-66
2023/10/10 14:13:19;;;;;;;26.60;16.67;;;21.20;99.90;;;;;;4971836;28;20764;-66
2023/10/10 14:15:56;;;;;;;24.23;17.25;;;21.10;99.90;;;;;;4955130;28;20053;-66
2023/10/10 14:18:32;;;;;;;23.35;17.38;;;21.00;99.90;;;;;;4954253;28;20081;-65
2023/10/10 14:21:07;;;;;;;22.40;16.30;;;21.00;99.90;;;;;;4974498;28;20449;-67
2023/10/10 14:23:35;;;;;;;25.63;16.80;;;20.90;99.90;;;;;;4966297;28;20458;-67
2023/10/10 14:26:12;;;;;;;23.15;16.92;;;21.00;99.90;;;;;;4950905;28;20054;-66
2023/10/10 14:28:40;;;;;;;25.88;16.15;;;21.00;99.90;;;;;;4970516;28;20031;-65
2023/10/10 14:31:11;;;;;;;24.25;16.95;;;20.90;99.90;;;;;;4961151;28;20077;-66
2023/10/10 14:33:39;;;;;;;;;;;20.90;99.90;;;;;;4941878;28;20074;-65
2023/10/10 14:36:05;;;;;;;20.83;15.15;;;20.90;99.90;;;;;;4948541;28;19929;-65
2023/10/10 14:38:31;;;;;;;25.27;16.13;;;20.90;99.90;;;;;;4949808;28;20078;-66
2023/10/10 14:40:57;;;;;;;23.35;15.30;;;20.80;99.90;;;;;;4954742;28;20117;-66
2023/10/10 14:43:23;;;;;;;21.98;15.85;;;20.80;99.90;;;;;;4959922;28;20424;-65
2023/10/10 14:45:48;;;;;;;23.75;15.15;;;20.80;99.90;;;;;;4975391;28;20051;-65
2023/10/10 14:48:18;;;;;;;23.15;15.45;;;20.80;99.90;;;;;;4976752;28;20038;-65
2023/10/10 14:50:45;;;;;;;27.73;15.93;;;20.80;99.90;;;;;;4959012;28;20050;-65
2023/10/10 14:53:10;;;;;;;24.00;15.10;;;20.80;99.90;;;;;;4980436;28;20035;-66
2023/10/10 14:55:44;;;;;;;23.63;15.68;;;20.80;99.90;;;;;;4975917;28;20128;-65
2023/10/10 14:58:12;;;;;;;23.48;15.98;;;20.80;99.90;;;;;;4958693;28;20142;-65
2023/10/10 15:00:41;;;;;;;27.60;16.50;;;20.80;99.90;;;;;;4976793;28;20039;-66
2023/10/10 15:03:15;;;;;;;28.80;16.55;;;20.80;99.90;;;;;;4972550;28;20046;-66
2023/10/10 15:05:50;;;;;;;26.67;15.40;;;20.70;99.90;;;;;;4969520;28;20039;-65
2023/10/10 15:08:17;;;;;;;27.83;16.35;;;20.70;99.90;;;;;;4975354;28;20057;-66
2023/10/10 15:10:43;;;;;;;27.25;15.10;;;20.70;99.90;;;;;;4952181;28;20464;-65
2023/10/10 15:13:09;;;;;;;22.55;16.05;;;20.60;99.90;;;;;;4989758;23;20054;-70
2023/10/10 15:15:35;;;;;;;25.40;16.05;;;20.50;99.90;;;;;;4991123;28;20046;-69
2023/10/10 15:18:01;;;;;;;27.90;16.85;;;20.50;99.90;;;;;;5009781;28;20048;-68
2023/10/10 15:20:27;;;;;;;23.52;15.70;;;20.60;99.90;;;;;;4998116;28;20038;-68
2023/10/10 15:22:53;;;;;;;23.83;16.38;;;20.40;99.90;;;;;;5008307;28;20034;-69
2023/10/10 15:25:21;;;;;;;26.67;16.38;;;20.40;99.90;;;;;;4961065;28;20049;-68
2023/10/10 15:27:49;;;;;;;24.30;15.73;;;20.30;99.90;;;;;;4976193;28;20042;-69
2023/10/10 15:30:15;;;;;;;27.95;17.42;;;20.30;99.90;;;;;;4957965;28;20043;-68
2023/10/10 15:32:47;;;;;;;24.00;16.40;;;20.30;99.90;;;;;;4957876;28;20097;-68
2023/10/10 15:35:13;;;;;;;33.75;21.38;;;20.30;99.90;;;;;;4959399;28;20124;-68
2023/10/10 15:37:42;;;;;;;26.58;16.77;;;20.30;99.90;;;;;;4946940;28;20042;-69
2023/10/10 15:40:21;;;;;;;31.40;16.60;;;20.30;99.90;;;;;;4959006;28;20058;-68
2023/10/10 15:42:51;;;;;;;35.03;19.15;;;20.20;99.90;;;;;;4959693;28;20046;-68
2023/10/10 15:45:22;;;;;;;28.65;18.60;;;20.20;99.90;;;;;;4971847;28;20054;-69
2023/10/10 15:47:49;;;;;;;27.05;18.15;;;20.10;99.90;;;;;;4973004;28;20077;-68
2023/10/10 15:50:18;;;;;;;29.02;18.55;;;20.10;99.90;;;;;;4980717;28;20065;-68
2023/10/10 15:52:48;;;;;;;28.23;18.30;;;20.00;99.90;;;;;;4979195;28;20129;-69
2023/10/10 15:55:19;;;;;;;29.92;18.13;;;20.00;99.90;;;;;;4980007;28;20046;-69
2023/10/10 15:57:45;;;;;;;25.23;16.75;;;20.00;99.90;;;;;;4944498;28;20034;-69